createdAt,value
2023-03-21T00:00:52.954Z,1010.24
2023-03-21T00:01:52.787Z,1010.26
2023-03-21T00:02:53.293Z,1009.89
2023-03-21T00:03:53.016Z,1010.23
2023-03-21T00:06:24.787Z,1009.86
2023-03-21T00:07:24.616Z,1009.86
2023-03-21T00:08:25.210Z,1010.22
2023-03-21T00:09:25.193Z,1010.15
2023-03-21T00:10:37.094Z,1010.22
2023-03-21T00:11:24.634Z,1009.85
2023-03-21T00:12:24.513Z,1009.94
2023-03-21T00:13:24.454Z,1010.02
2023-03-21T00:16:18.363Z,1010.06
2023-03-21T00:16:57.413Z,1009.72
2023-03-21T00:17:56.760Z,1009.76
2023-03-21T00:18:56.545Z,1010.09
2023-03-21T00:19:57.221Z,1009.73
2023-03-21T00:21:12.670Z,1010.08
2023-03-21T00:22:06.948Z,1010.09
2023-03-21T00:22:57.191Z,1010.04
2023-03-21T00:23:57.147Z,1009.68
2023-03-21T00:24:57.131Z,1009.67
2023-03-21T00:25:56.135Z,1009.69
2023-03-21T00:27:03.508Z,1009.68
2023-03-21T00:28:07.454Z,1010.08
2023-03-21T00:28:55.954Z,1009.66
2023-03-21T00:29:55.924Z,1009.71
2023-03-21T00:30:55.864Z,1009.67
2023-03-21T00:31:55.825Z,1009.61
2023-03-21T00:32:56.977Z,1010.01
2023-03-21T00:33:55.756Z,1009.64
2023-03-21T00:35:29.612Z,1009.61
2023-03-21T00:36:04.975Z,1009.63
2023-03-21T00:36:55.696Z,1009.57
2023-03-21T00:37:55.583Z,1009.57
2023-03-21T00:38:55.555Z,1009.62
2023-03-21T00:39:55.548Z,1009.67
2023-03-21T00:40:56.878Z,1009.90
2023-03-21T00:41:55.521Z,1009.54
2023-03-21T00:42:55.418Z,1009.90
2023-03-21T00:43:55.482Z,1009.54
2023-03-21T00:44:55.310Z,1009.55
2023-03-21T00:45:55.302Z,1009.91
2023-03-21T00:47:06.533Z,1009.56
2023-03-21T00:47:55.268Z,1009.88
2023-03-21T00:48:55.152Z,1009.50
2023-03-21T00:49:55.102Z,1009.47
2023-03-21T00:50:55.086Z,1009.46
2023-03-21T00:51:57.360Z,1009.48
2023-03-21T00:52:55.018Z,1009.45
2023-03-21T00:53:54.956Z,1009.80
2023-03-21T00:54:54.911Z,1009.75
2023-03-21T00:55:54.867Z,1009.73
2023-03-21T00:56:54.833Z,1009.78
2023-03-21T00:58:01.686Z,1009.74
2023-03-21T00:58:54.817Z,1009.42
2023-03-21T00:59:54.750Z,1009.62
2023-03-21T01:00:54.688Z,1009.40
2023-03-21T01:01:54.702Z,1009.34
2023-03-21T01:03:00.239Z,1009.35
2023-03-21T01:03:54.548Z,1009.71
2023-03-21T01:04:54.508Z,1009.47
2023-03-21T01:05:54.477Z,1009.34
2023-03-21T01:06:54.410Z,1009.67
2023-03-21T01:07:54.379Z,1009.69
2023-03-21T01:08:54.364Z,1009.70
2023-03-21T01:09:54.307Z,1009.34
2023-03-21T01:10:54.259Z,1009.66
2023-03-21T01:11:54.236Z,1009.65
2023-03-21T01:12:54.190Z,1009.40
2023-03-21T01:14:04.194Z,1009.33
2023-03-21T01:14:54.110Z,1009.66
2023-03-21T01:15:54.105Z,1009.35
2023-03-21T01:16:54.027Z,1009.66
2023-03-21T01:17:54.008Z,1009.70
2023-03-21T01:18:53.943Z,1009.28
2023-03-21T01:19:53.913Z,1009.27
2023-03-21T01:20:53.860Z,1009.27
2023-03-21T01:21:53.845Z,1009.28
2023-03-21T01:22:53.776Z,1009.63
2023-03-21T01:23:53.769Z,1009.60
2023-03-21T01:25:00.409Z,1009.24
2023-03-21T01:25:53.661Z,1009.24
2023-03-21T01:26:53.664Z,1009.23
2023-03-21T01:27:53.592Z,1009.22
2023-03-21T01:28:53.535Z,1009.24
2023-03-21T01:29:53.509Z,1009.32
2023-03-21T01:30:53.456Z,1009.57
2023-03-21T01:31:53.476Z,1009.21
2023-03-21T01:32:53.376Z,1009.19
2023-03-21T01:33:53.350Z,1009.55
2023-03-21T01:34:53.324Z,1009.48
2023-03-21T01:36:00.265Z,1009.52
2023-03-21T01:36:53.269Z,1009.15
2023-03-21T01:37:53.197Z,1009.17
2023-03-21T01:38:53.152Z,1009.52
2023-03-21T01:39:53.125Z,1009.16
2023-03-21T01:40:53.054Z,1009.18
2023-03-21T01:41:53.011Z,1009.51
2023-03-21T01:42:52.965Z,1009.16
2023-03-21T01:43:52.975Z,1009.52
2023-03-21T01:44:52.953Z,1009.17
2023-03-21T01:45:52.891Z,1009.18
2023-03-21T01:47:12.946Z,1009.42
2023-03-21T01:47:52.802Z,1009.50
2023-03-21T01:48:52.756Z,1009.20
2023-03-21T01:49:52.705Z,1009.50
2023-03-21T01:50:52.672Z,1009.49
2023-03-21T01:51:53.703Z,1009.11
2023-03-21T01:52:52.569Z,1009.10
2023-03-21T01:53:52.546Z,1009.48
2023-03-21T01:54:52.503Z,1009.09
2023-03-21T01:55:52.444Z,1009.43
2023-03-21T01:56:52.431Z,1009.39
2023-03-21T01:58:04.904Z,1009.41
2023-03-21T01:58:52.359Z,1009.36
2023-03-21T01:59:52.301Z,1009.01
2023-03-21T02:00:52.352Z,1009.38
2023-03-21T02:01:52.208Z,1009.02
2023-03-21T02:02:52.754Z,1009.11
2023-03-21T02:03:52.228Z,1009.05
2023-03-21T02:04:52.097Z,1009.38
2023-03-21T02:05:52.053Z,1009.30
2023-03-21T02:06:52.028Z,1009.01
2023-03-21T02:07:52.011Z,1008.99
2023-03-21T02:08:51.964Z,1009.00
2023-03-21T02:09:51.892Z,1009.00
2023-03-21T02:10:51.863Z,1008.98
2023-03-21T02:11:51.813Z,1008.97
2023-03-21T02:12:51.795Z,1009.00
2023-03-21T02:13:55.846Z,1008.99
2023-03-21T02:14:51.745Z,1009.00
2023-03-21T02:15:51.673Z,1009.31
2023-03-21T02:16:51.639Z,1008.94
2023-03-21T02:17:51.594Z,1008.96
2023-03-21T02:18:51.536Z,1008.93
2023-03-21T02:19:53.683Z,1008.92
2023-03-21T02:20:51.461Z,1008.89
2023-03-21T02:21:51.432Z,1008.88
2023-03-21T02:22:51.366Z,1008.86
2023-03-21T02:23:51.331Z,1008.87
2023-03-21T02:24:59.567Z,1008.86
2023-03-21T02:25:51.266Z,1009.19
2023-03-21T02:27:01.453Z,1008.85
2023-03-21T02:27:51.202Z,1008.80
2023-03-21T02:28:51.145Z,1009.13
2023-03-21T02:29:51.105Z,1008.84
2023-03-21T02:30:52.500Z,1009.10
2023-03-21T02:31:51.052Z,1008.68
2023-03-21T02:32:51.010Z,1008.99
2023-03-21T02:33:50.961Z,1008.65
2023-03-21T02:34:50.913Z,1008.97
2023-03-21T02:35:54.429Z,1008.60
2023-03-21T02:36:50.865Z,1008.94
2023-03-21T02:37:59.896Z,1008.64
2023-03-21T02:38:50.739Z,1008.55
2023-03-21T02:39:50.722Z,1008.54
2023-03-21T02:40:50.676Z,1008.54
2023-03-21T02:41:50.617Z,1008.51
2023-03-21T02:42:59.503Z,1008.93
2023-03-21T02:43:50.539Z,1008.90
2023-03-21T02:44:50.507Z,1008.52
2023-03-21T02:45:50.502Z,1008.89
2023-03-21T02:47:02.860Z,1008.53
2023-03-21T02:47:50.425Z,1008.56
2023-03-21T02:48:51.238Z,1008.52
2023-03-21T02:49:50.285Z,1008.87
2023-03-21T02:50:50.273Z,1008.50
2023-03-21T02:51:50.663Z,1008.62
2023-03-21T02:52:51.158Z,1008.87
2023-03-21T02:53:53.380Z,1008.83
2023-03-21T02:54:50.090Z,1008.49
2023-03-21T02:55:50.061Z,1008.51
2023-03-21T02:56:50.216Z,1008.46
2023-03-21T02:57:49.994Z,1008.45
2023-03-21T02:58:49.963Z,1008.45
2023-03-21T02:59:55.395Z,1008.81
2023-03-21T03:00:49.871Z,1008.80
2023-03-21T03:01:49.863Z,1008.46
2023-03-21T03:02:54.577Z,1008.48
2023-03-21T03:03:49.722Z,1008.49
2023-03-21T03:04:49.694Z,1008.82
2023-03-21T03:05:49.672Z,1008.84
2023-03-21T03:06:49.615Z,1008.83
2023-03-21T03:07:49.588Z,1008.49
2023-03-21T03:09:01.300Z,1008.83
2023-03-21T03:09:49.518Z,1008.44
2023-03-21T03:10:49.443Z,1008.48
2023-03-21T03:11:49.406Z,1008.82
2023-03-21T03:12:49.417Z,1008.48
2023-03-21T03:13:49.349Z,1008.42
2023-03-21T03:15:02.313Z,1008.43
2023-03-21T03:15:49.271Z,1008.46
2023-03-21T03:16:49.208Z,1008.46
2023-03-21T03:17:49.177Z,1008.78
2023-03-21T03:18:49.121Z,1008.61
2023-03-21T03:19:50.562Z,1008.43
2023-03-21T03:20:49.053Z,1008.81
2023-03-21T03:21:49.054Z,1008.79
2023-03-21T03:22:48.985Z,1008.78
2023-03-21T03:23:48.928Z,1008.65
2023-03-21T03:24:48.922Z,1008.70
2023-03-21T03:25:48.858Z,1008.71
2023-03-21T03:26:48.820Z,1008.73
2023-03-21T03:27:48.766Z,1008.35
2023-03-21T03:28:48.726Z,1008.34
2023-03-21T03:29:48.688Z,1008.28
2023-03-21T03:31:04.930Z,1008.30
2023-03-21T03:31:48.804Z,1008.30
2023-03-21T03:32:48.572Z,1008.32
2023-03-21T03:33:48.534Z,1008.64
2023-03-21T03:34:48.482Z,1008.33
2023-03-21T03:36:02.548Z,1008.35
2023-03-21T03:36:48.443Z,1008.66
2023-03-21T03:37:48.370Z,1008.33
2023-03-21T03:38:48.352Z,1008.30
2023-03-21T03:39:48.273Z,1008.31
2023-03-21T03:40:48.234Z,1008.28
2023-03-21T03:42:08.005Z,1008.29
2023-03-21T03:42:48.151Z,1008.29
2023-03-21T03:43:48.107Z,1008.40
2023-03-21T03:44:48.059Z,1008.32
2023-03-21T03:45:48.035Z,1008.48
2023-03-21T03:46:48.059Z,1008.62
2023-03-21T03:47:56.290Z,1008.30
2023-03-21T03:48:47.901Z,1008.64
2023-03-21T03:49:47.888Z,1008.42
2023-03-21T03:50:47.816Z,1008.30
2023-03-21T03:51:47.788Z,1008.60
2023-03-21T03:52:56.079Z,1008.61
2023-03-21T03:53:47.717Z,1008.58
2023-03-21T03:54:47.667Z,1008.57
2023-03-21T03:55:47.630Z,1008.58
2023-03-21T03:56:47.576Z,1008.25
2023-03-21T03:57:47.536Z,1008.56
2023-03-21T03:58:47.504Z,1008.56
2023-03-21T03:59:47.477Z,1008.49
2023-03-21T04:00:47.429Z,1008.21
2023-03-21T04:01:47.392Z,1008.53
2023-03-21T04:02:47.359Z,1008.53
2023-03-21T04:03:50.632Z,1008.48
2023-03-21T04:04:47.263Z,1008.49
2023-03-21T04:05:47.255Z,1008.46
2023-03-21T04:06:47.190Z,1008.11
2023-03-21T04:07:47.147Z,1008.13
2023-03-21T04:08:47.097Z,1008.14
2023-03-21T04:09:47.075Z,1008.10
2023-03-21T04:10:47.037Z,1008.42
2023-03-21T04:11:46.977Z,1008.06
2023-03-21T04:12:46.972Z,1008.04
2023-03-21T04:13:46.919Z,1008.05
2023-03-21T04:14:47.560Z,1008.03
2023-03-21T04:15:46.911Z,1008.03
2023-03-21T04:16:46.779Z,1008.00
2023-03-21T04:17:46.752Z,1007.97
2023-03-21T04:18:47.203Z,1008.34
2023-03-21T04:19:46.676Z,1007.98
2023-03-21T04:20:46.792Z,1008.32
2023-03-21T04:21:47.187Z,1008.31
2023-03-21T04:22:46.515Z,1008.35
2023-03-21T04:23:46.520Z,1008.02
2023-03-21T04:24:46.487Z,1008.05
2023-03-21T04:25:55.868Z,1008.01
2023-03-21T04:26:46.362Z,1008.37
2023-03-21T04:27:46.329Z,1008.04
2023-03-21T04:28:46.275Z,1008.02
2023-03-21T04:29:46.263Z,1008.37
2023-03-21T04:30:58.956Z,1008.37
2023-03-21T04:31:46.239Z,1008.39
2023-03-21T04:32:46.225Z,1008.34
2023-03-21T04:33:46.081Z,1008.29
2023-03-21T04:34:46.040Z,1008.36
2023-03-21T04:35:46.131Z,1008.35
2023-03-21T04:36:46.216Z,1008.00
2023-03-21T04:37:45.941Z,1008.31
2023-03-21T04:38:45.880Z,1007.98
2023-03-21T04:39:45.836Z,1007.95
2023-03-21T04:40:45.794Z,1008.00
2023-03-21T04:41:45.777Z,1008.34
2023-03-21T04:42:45.893Z,1008.03
2023-03-21T04:43:45.686Z,1008.04
2023-03-21T04:44:45.636Z,1008.36
2023-03-21T04:45:45.617Z,1008.04
2023-03-21T04:46:45.584Z,1008.30
2023-03-21T04:47:45.594Z,1008.02
2023-03-21T04:48:45.490Z,1008.01
2023-03-21T04:49:45.441Z,1008.35
2023-03-21T04:50:45.401Z,1008.10
2023-03-21T04:51:45.458Z,1008.07
2023-03-21T04:52:45.325Z,1008.39
2023-03-21T04:53:45.304Z,1008.38
2023-03-21T04:54:45.225Z,1008.05
2023-03-21T04:55:45.213Z,1008.29
2023-03-21T04:56:45.163Z,1007.95
2023-03-21T04:57:45.112Z,1008.26
2023-03-21T04:58:45.069Z,1008.21
2023-03-21T04:59:45.052Z,1007.81
2023-03-21T05:00:45.006Z,1007.82
2023-03-21T05:01:44.997Z,1008.14
2023-03-21T05:02:44.907Z,1007.81
2023-03-21T05:03:44.895Z,1007.77
2023-03-21T05:04:44.840Z,1007.80
2023-03-21T05:05:44.794Z,1007.78
2023-03-21T05:06:44.749Z,1007.79
2023-03-21T05:07:44.719Z,1007.83
2023-03-21T05:08:44.663Z,1007.82
2023-03-21T05:09:44.617Z,1008.10
2023-03-21T05:10:44.606Z,1007.81
2023-03-21T05:11:44.556Z,1008.09
2023-03-21T05:12:44.524Z,1008.15
2023-03-21T05:13:44.476Z,1007.79
2023-03-21T05:14:44.435Z,1008.16
2023-03-21T05:15:44.376Z,1007.94
2023-03-21T05:16:44.359Z,1007.80
2023-03-21T05:17:45.166Z,1008.16
2023-03-21T05:18:44.256Z,1008.11
2023-03-21T05:19:44.214Z,1008.18
2023-03-21T05:20:44.166Z,1008.19
2023-03-21T05:21:44.134Z,1007.88
2023-03-21T05:22:44.102Z,1007.89
2023-03-21T05:23:44.047Z,1007.86
2023-03-21T05:24:44.071Z,1008.26
2023-03-21T05:25:43.966Z,1008.23
2023-03-21T05:26:43.946Z,1008.05
2023-03-21T05:27:43.877Z,1008.22
2023-03-21T05:28:43.884Z,1007.92
2023-03-21T05:29:43.816Z,1008.24
2023-03-21T05:30:43.818Z,1008.26
2023-03-21T05:31:43.713Z,1008.25
2023-03-21T05:32:43.709Z,1007.88
2023-03-21T05:33:43.650Z,1007.86
2023-03-21T05:34:43.589Z,1007.87
2023-03-21T05:35:43.583Z,1008.08
2023-03-21T05:36:43.521Z,1007.82
2023-03-21T05:37:43.513Z,1008.18
2023-03-21T05:38:43.441Z,1007.85
2023-03-21T05:39:43.424Z,1007.82
2023-03-21T05:40:43.352Z,1007.84
2023-03-21T05:41:43.368Z,1008.19
2023-03-21T05:42:43.311Z,1007.86
2023-03-21T05:43:43.262Z,1008.10
2023-03-21T05:44:43.186Z,1007.84
2023-03-21T05:45:43.249Z,1008.23
2023-03-21T05:46:43.107Z,1007.87
2023-03-21T05:47:43.129Z,1008.25
2023-03-21T05:48:43.055Z,1008.30
2023-03-21T05:49:43.037Z,1008.30
2023-03-21T05:50:42.944Z,1007.96
2023-03-21T05:51:42.921Z,1007.97
2023-03-21T05:52:42.868Z,1007.96
2023-03-21T05:53:42.848Z,1008.06
2023-03-21T05:54:42.777Z,1008.30
2023-03-21T05:55:42.745Z,1008.27
2023-03-21T05:56:42.717Z,1008.04
2023-03-21T05:57:42.671Z,1008.37
2023-03-21T05:58:42.621Z,1008.34
2023-03-21T05:59:42.603Z,1008.37
2023-03-21T06:00:42.545Z,1008.04
2023-03-21T06:01:42.498Z,1008.03
2023-03-21T06:02:42.476Z,1008.35
2023-03-21T06:03:42.463Z,1008.07
2023-03-21T06:04:42.376Z,1007.99
2023-03-21T06:05:42.334Z,1008.01
2023-03-21T06:06:42.306Z,1008.01
2023-03-21T06:07:42.263Z,1008.00
2023-03-21T06:08:42.222Z,1007.97
2023-03-21T06:09:42.197Z,1008.01
2023-03-21T06:10:42.132Z,1008.34
2023-03-21T06:11:42.118Z,1008.01
2023-03-21T06:12:42.052Z,1008.33
2023-03-21T06:13:42.009Z,1007.99
2023-03-21T06:14:41.983Z,1008.14
2023-03-21T06:15:41.950Z,1008.01
2023-03-21T06:16:41.884Z,1008.35
2023-03-21T06:17:41.851Z,1007.97
2023-03-21T06:18:41.821Z,1007.98
2023-03-21T06:19:41.782Z,1007.99
2023-03-21T06:20:41.751Z,1007.97
2023-03-21T06:21:41.684Z,1008.00
2023-03-21T06:22:41.642Z,1007.99
2023-03-21T06:23:41.611Z,1008.02
2023-03-21T06:24:41.568Z,1007.98
2023-03-21T06:25:41.512Z,1008.01
2023-03-21T06:26:41.510Z,1008.00
2023-03-21T06:27:41.451Z,1008.03
2023-03-21T06:28:41.413Z,1008.35
2023-03-21T06:29:41.364Z,1008.37
2023-03-21T06:30:41.319Z,1007.99
2023-03-21T06:31:41.370Z,1008.41
2023-03-21T06:32:41.269Z,1008.00
2023-03-21T06:33:41.196Z,1008.10
2023-03-21T06:34:41.170Z,1008.05
2023-03-21T06:35:41.158Z,1008.02
2023-03-21T06:36:41.072Z,1008.05
2023-03-21T06:37:41.048Z,1008.04
2023-03-21T06:38:41.017Z,1008.07
2023-03-21T06:39:40.953Z,1008.05
2023-03-21T06:40:40.908Z,1008.10
2023-03-21T06:41:40.880Z,1008.42
2023-03-21T06:42:40.838Z,1008.07
2023-03-21T06:43:40.785Z,1008.06
2023-03-21T06:44:40.779Z,1008.14
2023-03-21T06:45:40.700Z,1008.42
2023-03-21T06:46:40.690Z,1008.43
2023-03-21T06:47:40.656Z,1008.15
2023-03-21T06:48:40.595Z,1008.43
2023-03-21T06:49:40.540Z,1008.45
2023-03-21T06:50:40.533Z,1008.45
2023-03-21T06:51:40.451Z,1008.16
2023-03-21T06:52:40.443Z,1008.13
2023-03-21T06:53:40.382Z,1008.13
2023-03-21T06:54:40.340Z,1008.15
2023-03-21T06:55:40.517Z,1008.13
2023-03-21T06:56:40.279Z,1008.16
2023-03-21T06:57:40.228Z,1008.19
2023-03-21T06:58:40.176Z,1008.18
2023-03-21T06:59:40.145Z,1008.19
2023-03-21T07:00:40.154Z,1008.16
2023-03-21T07:01:40.062Z,1008.22
2023-03-21T07:02:51.389Z,1008.21
2023-03-21T07:03:40.021Z,1008.53
2023-03-21T07:04:39.941Z,1008.60
2023-03-21T07:05:40.322Z,1008.58
2023-03-21T07:06:40.023Z,1008.21
2023-03-21T07:07:39.803Z,1008.23
2023-03-21T07:08:39.769Z,1008.59
2023-03-21T07:09:39.719Z,1008.56
2023-03-21T07:10:39.675Z,1008.23
2023-03-21T07:11:39.633Z,1008.26
2023-03-21T07:12:39.606Z,1008.27
2023-03-21T07:13:39.575Z,1008.29
2023-03-21T07:14:39.529Z,1008.29
2023-03-21T07:15:39.700Z,1008.32
2023-03-21T07:16:39.451Z,1008.68
2023-03-21T07:17:39.388Z,1008.66
2023-03-21T07:18:39.356Z,1008.29
2023-03-21T07:19:39.318Z,1008.30
2023-03-21T07:20:39.288Z,1008.27
2023-03-21T07:21:39.225Z,1008.62
2023-03-21T07:22:39.213Z,1008.29
2023-03-21T07:23:39.146Z,1008.31
2023-03-21T07:24:39.141Z,1008.28
2023-03-21T07:25:39.371Z,1008.32
2023-03-21T07:26:39.044Z,1008.33
2023-03-21T07:27:40.910Z,1008.65
2023-03-21T07:28:38.944Z,1008.69
2023-03-21T07:29:38.907Z,1008.70
2023-03-21T07:30:38.880Z,1008.32
2023-03-21T07:31:38.857Z,1008.62
2023-03-21T07:32:38.804Z,1008.30
2023-03-21T07:33:38.743Z,1008.29
2023-03-21T07:34:38.705Z,1008.23
2023-03-21T07:35:38.984Z,1008.42
2023-03-21T07:36:38.626Z,1008.47
2023-03-21T07:37:38.579Z,1008.18
2023-03-21T07:38:38.556Z,1008.16
2023-03-21T07:39:38.508Z,1008.14
2023-03-21T07:40:38.705Z,1008.04
2023-03-21T07:41:38.423Z,1008.39
2023-03-21T07:42:38.385Z,1008.05
2023-03-21T07:43:39.317Z,1008.05
2023-03-21T07:44:38.321Z,1008.40
2023-03-21T07:45:38.550Z,1008.06
2023-03-21T07:46:38.221Z,1008.12
2023-03-21T07:47:38.297Z,1008.17
2023-03-21T07:48:38.146Z,1008.19
2023-03-21T07:49:38.096Z,1008.58
2023-03-21T07:50:38.069Z,1008.23
2023-03-21T07:51:38.031Z,1008.31
2023-03-21T07:52:37.988Z,1008.57
2023-03-21T07:53:37.933Z,1008.55
2023-03-21T07:54:37.893Z,1008.54
2023-03-21T07:55:38.095Z,1008.22
2023-03-21T07:56:37.822Z,1008.20
2023-03-21T07:57:37.780Z,1008.24
2023-03-21T07:58:37.755Z,1008.24
2023-03-21T07:59:37.696Z,1008.21
2023-03-21T08:00:37.677Z,1008.68
2023-03-21T08:01:37.624Z,1008.69
2023-03-21T08:02:37.753Z,1008.54
2023-03-21T08:03:37.570Z,1008.38
2023-03-21T08:04:38.250Z,1008.39
2023-03-21T08:05:38.007Z,1008.74
2023-03-21T08:06:37.430Z,1008.57
2023-03-21T08:07:37.370Z,1008.82
2023-03-21T08:08:37.341Z,1008.80
2023-03-21T08:09:37.302Z,1008.46
2023-03-21T08:10:37.271Z,1008.83
2023-03-21T08:11:37.226Z,1008.46
2023-03-21T08:12:37.877Z,1008.51
2023-03-21T08:13:37.141Z,1008.50
2023-03-21T08:14:37.117Z,1008.58
2023-03-21T08:15:37.426Z,1008.87
2023-03-21T08:16:37.072Z,1008.55
2023-03-21T08:17:37.071Z,1008.64
2023-03-21T08:18:36.975Z,1008.87
2023-03-21T08:19:36.892Z,1008.56
2023-03-21T08:20:36.894Z,1008.56
2023-03-21T08:21:36.948Z,1008.57
2023-03-21T08:22:44.318Z,1008.87
2023-03-21T08:23:47.294Z,1008.56
2023-03-21T08:24:39.268Z,1008.56
2023-03-21T08:25:37.102Z,1008.57
2023-03-21T08:29:45.201Z,1008.52
2023-03-21T09:03:11.751Z,1008.55
2023-03-21T09:04:10.517Z,1008.54
2023-03-21T09:05:10.388Z,1008.52
2023-03-21T09:06:10.576Z,1008.87
2023-03-21T09:07:11.538Z,1008.91
2023-03-21T09:08:32.547Z,1008.84
2023-03-21T09:09:12.039Z,1008.46
2023-03-21T09:10:22.850Z,1008.48
2023-03-21T09:11:10.381Z,1008.46
2023-03-21T09:12:10.207Z,1008.47
2023-03-21T09:13:11.049Z,1008.83
2023-03-21T09:14:10.185Z,1008.51
2023-03-21T09:15:11.558Z,1008.54
2023-03-21T09:16:16.145Z,1008.54
2023-03-21T09:17:10.651Z,1008.50
2023-03-21T09:18:14.051Z,1008.57
2023-03-21T09:19:10.543Z,1008.55
2023-03-21T09:20:17.559Z,1008.55
2023-03-21T09:21:13.542Z,1008.55
2023-03-21T09:22:10.545Z,1008.57
2023-03-21T09:23:11.570Z,1008.59
2023-03-21T09:25:16.559Z,1008.48
2023-03-21T09:26:11.546Z,1008.55
2023-03-21T09:27:13.590Z,1008.54
2023-03-21T09:29:15.872Z,1008.85
2023-03-21T09:30:44.074Z,1008.57
2023-03-21T09:31:42.656Z,1008.53
2023-03-21T11:44:29.689Z,1007.74
2023-03-21T11:45:29.619Z,1008.02
2023-03-21T11:46:29.686Z,1007.80
2023-03-21T11:47:29.508Z,1007.74
2023-03-21T11:48:29.724Z,1007.71
2023-03-21T11:49:29.643Z,1008.07
2023-03-21T11:50:29.495Z,1007.68
2023-03-21T11:51:29.538Z,1007.72
2023-03-21T11:52:30.547Z,1008.04
2023-03-21T11:53:52.990Z,1007.66
2023-03-21T11:54:30.020Z,1007.97
2023-03-21T11:55:29.311Z,1007.66
2023-03-21T11:56:29.891Z,1007.71
2023-03-21T11:57:29.192Z,1007.62
2023-03-21T11:58:29.122Z,1007.54
2023-03-21T11:59:29.178Z,1007.56
2023-03-21T12:00:30.064Z,1007.54
2023-03-21T12:01:29.086Z,1007.65
2023-03-21T12:02:29.170Z,1007.79
2023-03-21T12:03:32.743Z,1007.86
2023-03-21T12:04:29.418Z,1007.46
2023-03-21T12:05:28.911Z,1007.49
2023-03-21T12:06:28.928Z,1007.35
2023-03-21T12:07:29.088Z,1007.72
2023-03-21T12:08:28.768Z,1007.44
2023-03-21T12:09:28.875Z,1007.85
2023-03-21T12:10:28.736Z,1007.56
2023-03-21T12:11:28.705Z,1007.44
2023-03-21T12:12:38.293Z,1007.45
2023-03-21T12:13:28.521Z,1007.49
2023-03-21T12:14:28.494Z,1007.49
2023-03-21T12:15:28.462Z,1007.53
2023-03-21T12:16:28.488Z,1007.58
2023-03-21T12:17:28.343Z,1007.79
2023-03-21T12:18:28.335Z,1007.62
2023-03-21T12:19:28.341Z,1007.55
2023-03-21T12:20:28.249Z,1007.91
2023-03-21T12:21:28.218Z,1007.51
2023-03-21T12:22:28.163Z,1007.51
2023-03-21T12:23:28.183Z,1007.52
2023-03-21T12:24:28.095Z,1007.50
2023-03-21T12:25:29.940Z,1007.84
2023-03-21T12:26:28.015Z,1007.55
2023-03-21T12:27:28.120Z,1007.82
2023-03-21T12:28:33.025Z,1007.74
2023-03-21T12:30:43.962Z,1007.35
2023-03-21T12:32:06.485Z,1007.51
2023-03-21T12:43:56.499Z,1007.82
2023-03-21T12:44:56.383Z,1007.57
2023-03-21T12:45:56.414Z,1007.44
2023-03-21T12:46:56.650Z,1007.82
2023-03-21T12:47:56.477Z,1007.80
2023-03-21T12:48:57.041Z,1007.78
2023-03-21T12:49:56.190Z,1007.39
2023-03-21T12:50:56.224Z,1007.33
2023-03-21T12:51:56.362Z,1007.28
2023-03-21T12:53:02.817Z,1007.32
2023-03-21T12:54:03.852Z,1007.49
2023-03-21T12:54:58.841Z,1007.35
2023-03-21T12:55:59.319Z,1007.39
2023-03-21T12:56:56.901Z,1007.32
2023-03-21T12:58:12.826Z,1007.30
2023-03-21T12:59:04.876Z,1007.30
2023-03-21T12:59:57.281Z,1007.53
2023-03-21T13:00:57.374Z,1007.21
2023-03-21T13:01:57.861Z,1007.24
2023-03-21T13:03:06.366Z,1007.24
2023-03-21T13:03:56.718Z,1007.35
2023-03-21T13:04:56.611Z,1007.24
2023-03-21T13:05:56.468Z,1007.23
2023-03-21T13:06:56.459Z,1007.54
2023-03-21T13:07:56.467Z,1007.54
2023-03-21T13:08:56.343Z,1007.10
2023-03-21T13:09:56.327Z,1007.37
2023-03-21T13:10:56.947Z,1007.11
2023-03-21T13:11:56.768Z,1007.13
2023-03-21T13:12:56.265Z,1007.42
2023-03-21T13:13:55.500Z,1007.25
2023-03-21T13:14:55.345Z,1007.05
2023-03-21T13:15:55.230Z,1007.39
2023-03-21T13:16:55.109Z,1006.89
2023-03-21T13:17:55.129Z,1007.29
2023-03-21T13:18:55.102Z,1006.88
2023-03-21T13:19:55.008Z,1007.23
2023-03-21T13:20:54.970Z,1006.79
2023-03-21T13:21:54.904Z,1007.15
2023-03-21T13:22:54.896Z,1006.77
2023-03-21T13:23:54.862Z,1006.82
2023-03-21T13:24:54.825Z,1006.76
2023-03-21T13:25:54.781Z,1007.17
2023-03-21T13:26:54.716Z,1006.71
2023-03-21T13:27:54.729Z,1006.75
2023-03-21T13:28:54.636Z,1006.68
2023-03-21T13:29:54.664Z,1006.64
2023-03-21T13:30:54.607Z,1006.62
2023-03-21T13:31:57.071Z,1006.58
2023-03-21T13:32:54.485Z,1006.63
2023-03-21T13:33:54.470Z,1007.10
2023-03-21T13:34:54.484Z,1006.67
2023-03-21T13:35:54.435Z,1006.98
2023-03-21T13:36:54.343Z,1006.61
2023-03-21T13:37:54.293Z,1006.94
2023-03-21T13:38:54.253Z,1006.73
2023-03-21T13:39:54.217Z,1006.62
2023-03-21T13:40:54.202Z,1006.70
2023-03-21T13:41:54.165Z,1006.69
2023-03-21T13:42:54.097Z,1006.99
2023-03-21T13:43:54.073Z,1006.97
2023-03-21T13:44:54.017Z,1006.63
2023-03-21T13:45:54.201Z,1006.65
2023-03-21T13:46:54.836Z,1006.51
2023-03-21T13:47:53.941Z,1006.52
2023-03-21T13:48:58.759Z,1006.45
2023-03-21T13:49:53.837Z,1006.50
2023-03-21T13:50:53.842Z,1006.62
2023-03-21T13:51:53.761Z,1006.66
2023-03-21T13:52:53.709Z,1006.61
2023-03-21T13:53:53.656Z,1006.62
2023-03-21T13:54:53.625Z,1006.36
2023-03-21T13:55:53.615Z,1006.34
2023-03-21T13:56:53.575Z,1006.68
2023-03-21T13:57:53.642Z,1006.80
2023-03-21T13:58:53.468Z,1006.41
2023-03-21T13:59:53.408Z,1006.42
2023-03-21T14:00:53.437Z,1006.41
2023-03-21T14:01:53.348Z,1006.59
2023-03-21T14:02:53.334Z,1006.79
2023-03-21T14:05:04.775Z,1006.50
2023-03-21T14:05:53.276Z,1006.39
2023-03-21T14:06:53.254Z,1006.36
2023-03-21T14:07:54.765Z,1006.70
2023-03-21T14:08:53.104Z,1006.72
2023-03-21T14:09:53.051Z,1006.27
2023-03-21T14:10:52.993Z,1006.65
2023-03-21T14:11:54.665Z,1006.23
2023-03-21T14:12:52.960Z,1006.67
2023-03-21T14:13:52.880Z,1006.61
2023-03-21T14:14:52.850Z,1006.29
2023-03-21T14:15:56.422Z,1006.22
2023-03-21T14:16:52.825Z,1006.67
2023-03-21T14:17:52.733Z,1006.44
2023-03-21T14:18:54.516Z,1006.60
2023-03-21T14:19:52.637Z,1006.36
2023-03-21T14:20:52.604Z,1006.56
2023-03-21T14:21:52.664Z,1006.14
2023-03-21T14:22:52.653Z,1006.27
2023-03-21T14:23:52.504Z,1006.26
2023-03-21T14:24:52.496Z,1006.57
2023-03-21T14:25:52.950Z,1006.20
2023-03-21T14:26:52.414Z,1006.53
2023-03-21T14:27:52.354Z,1006.22
2023-03-21T14:28:52.358Z,1006.19
2023-03-21T14:29:52.291Z,1006.18
2023-03-21T14:30:52.287Z,1006.50
2023-03-21T14:31:52.162Z,1006.45
2023-03-21T14:32:52.166Z,1006.09
2023-03-21T14:33:52.153Z,1006.07
2023-03-21T14:34:52.879Z,1006.46
2023-03-21T14:35:52.078Z,1006.54
2023-03-21T14:36:58.202Z,1006.44
2023-03-21T14:37:51.969Z,1006.55
2023-03-21T14:38:52.143Z,1006.21
2023-03-21T14:39:51.883Z,1006.21
2023-03-21T14:40:51.863Z,1006.19
2023-03-21T14:41:51.802Z,1006.18
2023-03-21T14:42:51.764Z,1006.38
2023-03-21T14:43:51.735Z,1006.51
2023-03-21T14:44:55.265Z,1006.22
2023-03-21T14:45:51.681Z,1006.24
2023-03-21T14:46:51.629Z,1006.51
2023-03-21T14:47:51.604Z,1006.41
2023-03-21T14:48:51.542Z,1006.65
2023-03-21T14:49:51.479Z,1006.21
2023-03-21T14:50:51.481Z,1006.49
2023-03-21T14:51:51.421Z,1006.50
2023-03-21T14:52:51.348Z,1006.51
2023-03-21T14:53:51.331Z,1006.15
2023-03-21T14:54:51.353Z,1006.16
2023-03-21T14:55:51.260Z,1006.45
2023-03-21T14:56:51.223Z,1006.49
2023-03-21T14:57:51.180Z,1006.10
2023-03-21T14:58:52.089Z,1006.10
2023-03-21T14:59:51.164Z,1006.09
2023-03-21T15:00:51.126Z,1006.09
2023-03-21T15:01:51.068Z,1006.39
2023-03-21T15:02:51.210Z,1006.07
2023-03-21T15:03:50.930Z,1005.96
2023-03-21T15:04:50.987Z,1005.96
2023-03-21T15:05:51.388Z,1006.35
2023-03-21T15:06:50.837Z,1005.93
2023-03-21T15:07:50.798Z,1006.03
2023-03-21T15:08:50.812Z,1005.92
2023-03-21T15:09:50.747Z,1005.98
2023-03-21T15:11:00.885Z,1005.88
2023-03-21T15:11:50.677Z,1006.01